sensor_id;sensor_type;location;lat;lon;timestamp;P1;durP1;ratioP1;P2;durP2;ratioP2
25922;SDS011;13725;51.170;4.442;2022-08-19T00:01:26;43.47;;;26.40;;
25922;SDS011;13725;51.170;4.442;2022-08-19T00:03:54;42.97;;;27.58;;
25922;SDS011;13725;51.170;4.442;2022-08-19T00:06:20;40.70;;;26.50;;
25922;SDS011;13725;51.170;4.442;2022-08-19T00:08:46;43.75;;;28.10;;
25922;SDS011;13725;51.170;4.442;2022-08-19T00:11:12;48.80;;;29.65;;
25922;SDS011;13725;51.170;4.442;2022-08-19T00:13:38;46.92;;;27.85;;
25922;SDS011;13725;51.170;4.442;2022-08-19T00:16:04;45.15;;;28.33;;
25922;SDS011;13725;51.170;4.442;2022-08-19T00:18:31;49.08;;;28.67;;
25922;SDS011;13725;51.170;4.442;2022-08-19T00:20:58;48.20;;;28.55;;
25922;SDS011;13725;51.170;4.442;2022-08-19T00:23:25;50.67;;;29.23;;
25922;SDS011;13725;51.170;4.442;2022-08-19T00:25:52;46.15;;;29.75;;
25922;SDS011;13725;51.170;4.442;2022-08-19T00:28:18;42.75;;;28.38;;
25922;SDS011;13725;51.170;4.442;2022-08-19T00:30:45;46.78;;;29.67;;
25922;SDS011;13725;51.170;4.442;2022-08-19T00:33:11;49.08;;;29.77;;
25922;SDS011;13725;51.170;4.442;2022-08-19T00:35:38;49.97;;;28.33;;
25922;SDS011;13725;51.170;4.442;2022-08-19T00:38:04;49.13;;;31.80;;
25922;SDS011;13725;51.170;4.442;2022-08-19T00:40:31;55.20;;;31.73;;
25922;SDS011;13725;51.170;4.442;2022-08-19T00:42:57;52.17;;;32.33;;
25922;SDS011;13725;51.170;4.442;2022-08-19T00:45:24;55.38;;;34.15;;
25922;SDS011;13725;51.170;4.442;2022-08-19T00:47:51;57.80;;;33.30;;
25922;SDS011;13725;51.170;4.442;2022-08-19T00:50:18;55.35;;;33.25;;
25922;SDS011;13725;51.170;4.442;2022-08-19T00:52:47;50.97;;;31.63;;
25922;SDS011;13725;51.170;4.442;2022-08-19T00:55:19;50.50;;;32.13;;
25922;SDS011;13725;51.170;4.442;2022-08-19T00:57:48;51.58;;;30.65;;
25922;SDS011;13725;51.170;4.442;2022-08-19T01:00:19;49.75;;;30.75;;
25922;SDS011;13725;51.170;4.442;2022-08-19T01:02:46;49.53;;;28.95;;
25922;SDS011;13725;51.170;4.442;2022-08-19T01:05:14;47.60;;;29.50;;
25922;SDS011;13725;51.170;4.442;2022-08-19T01:07:43;47.97;;;28.40;;
25922;SDS011;13725;51.170;4.442;2022-08-19T01:10:13;47.35;;;29.38;;
25922;SDS011;13725;51.170;4.442;2022-08-19T01:12:41;47.38;;;29.60;;
25922;SDS011;13725;51.170;4.442;2022-08-19T01:15:08;46.95;;;30.33;;
25922;SDS011;13725;51.170;4.442;2022-08-19T01:17:36;49.42;;;29.27;;
25922;SDS011;13725;51.170;4.442;2022-08-19T01:20:04;51.42;;;30.83;;
25922;SDS011;13725;51.170;4.442;2022-08-19T01:22:34;48.20;;;29.92;;
25922;SDS011;13725;51.170;4.442;2022-08-19T01:25:10;52.13;;;30.33;;
25922;SDS011;13725;51.170;4.442;2022-08-19T01:27:40;51.45;;;31.75;;
25922;SDS011;13725;51.170;4.442;2022-08-19T01:30:08;55.47;;;33.05;;
25922;SDS011;13725;51.170;4.442;2022-08-19T01:32:36;55.33;;;33.60;;
25922;SDS011;13725;51.170;4.442;2022-08-19T01:35:02;51.47;;;32.13;;
25922;SDS011;13725;51.170;4.442;2022-08-19T01:37:30;53.58;;;31.92;;
25922;SDS011;13725;51.170;4.442;2022-08-19T01:40:06;49.30;;;30.05;;
25922;SDS011;13725;51.170;4.442;2022-08-19T01:42:33;49.50;;;29.38;;
25922;SDS011;13725;51.170;4.442;2022-08-19T01:45:00;49.83;;;29.13;;
25922;SDS011;13725;51.170;4.442;2022-08-19T01:47:26;50.58;;;29.80;;
25922;SDS011;13725;51.170;4.442;2022-08-19T01:49:51;49.60;;;29.80;;
25922;SDS011;13725;51.170;4.442;2022-08-19T01:52:17;56.25;;;30.13;;
25922;SDS011;13725;51.170;4.442;2022-08-19T01:54:43;50.33;;;29.27;;
25922;SDS011;13725;51.170;4.442;2022-08-19T01:57:10;47.47;;;28.92;;
25922;SDS011;13725;51.170;4.442;2022-08-19T01:59:39;47.17;;;27.88;;
25922;SDS011;13725;51.170;4.442;2022-08-19T02:02:06;49.08;;;28.52;;
25922;SDS011;13725;51.170;4.442;2022-08-19T02:04:35;52.38;;;30.83;;
25922;SDS011;13725;51.170;4.442;2022-08-19T02:07:03;53.88;;;29.83;;
25922;SDS011;13725;51.170;4.442;2022-08-19T02:09:30;51.50;;;29.38;;
25922;SDS011;13725;51.170;4.442;2022-08-19T02:11:56;55.03;;;30.08;;
25922;SDS011;13725;51.170;4.442;2022-08-19T02:14:22;54.45;;;31.00;;
25922;SDS011;13725;51.170;4.442;2022-08-19T02:16:48;54.17;;;30.70;;
25922;SDS011;13725;51.170;4.442;2022-08-19T02:19:14;50.38;;;30.35;;
25922;SDS011;13725;51.170;4.442;2022-08-19T02:21:39;53.10;;;31.10;;
25922;SDS011;13725;51.170;4.442;2022-08-19T02:24:05;55.63;;;31.05;;
25922;SDS011;13725;51.170;4.442;2022-08-19T02:26:31;56.42;;;31.15;;
25922;SDS011;13725;51.170;4.442;2022-08-19T02:28:58;56.33;;;32.15;;
25922;SDS011;13725;51.170;4.442;2022-08-19T02:31:25;54.50;;;29.88;;
25922;SDS011;13725;51.170;4.442;2022-08-19T02:33:53;58.17;;;34.22;;
25922;SDS011;13725;51.170;4.442;2022-08-19T02:36:20;52.60;;;31.52;;
25922;SDS011;13725;51.170;4.442;2022-08-19T02:38:46;58.95;;;32.88;;
25922;SDS011;13725;51.170;4.442;2022-08-19T02:41:22;58.50;;;32.30;;
25922;SDS011;13725;51.170;4.442;2022-08-19T02:43:50;55.20;;;31.00;;
25922;SDS011;13725;51.170;4.442;2022-08-19T02:46:19;59.15;;;32.05;;
25922;SDS011;13725;51.170;4.442;2022-08-19T02:48:50;60.65;;;34.53;;
25922;SDS011;13725;51.170;4.442;2022-08-19T02:51:18;59.50;;;32.72;;
25922;SDS011;13725;51.170;4.442;2022-08-19T02:53:45;59.13;;;32.33;;
25922;SDS011;13725;51.170;4.442;2022-08-19T02:56:11;59.10;;;33.13;;
25922;SDS011;13725;51.170;4.442;2022-08-19T02:58:37;60.17;;;32.08;;
25922;SDS011;13725;51.170;4.442;2022-08-19T03:01:03;59.83;;;32.75;;
25922;SDS011;13725;51.170;4.442;2022-08-19T03:03:29;58.75;;;32.00;;
25922;SDS011;13725;51.170;4.442;2022-08-19T03:06:07;60.42;;;32.28;;
25922;SDS011;13725;51.170;4.442;2022-08-19T03:08:36;54.85;;;29.67;;
25922;SDS011;13725;51.170;4.442;2022-08-19T03:11:04;52.88;;;30.13;;
25922;SDS011;13725;51.170;4.442;2022-08-19T03:13:30;57.35;;;31.65;;
25922;SDS011;13725;51.170;4.442;2022-08-19T03:15:56;60.38;;;32.25;;
25922;SDS011;13725;51.170;4.442;2022-08-19T03:18:22;59.55;;;31.52;;
25922;SDS011;13725;51.170;4.442;2022-08-19T03:20:49;57.92;;;31.27;;
25922;SDS011;13725;51.170;4.442;2022-08-19T03:23:17;62.72;;;32.67;;
25922;SDS011;13725;51.170;4.442;2022-08-19T03:25:45;56.60;;;31.13;;
25922;SDS011;13725;51.170;4.442;2022-08-19T03:28:12;57.65;;;31.55;;
25922;SDS011;13725;51.170;4.442;2022-08-19T03:30:40;52.45;;;29.48;;
25922;SDS011;13725;51.170;4.442;2022-08-19T03:33:09;52.67;;;29.13;;
25922;SDS011;13725;51.170;4.442;2022-08-19T03:35:37;54.05;;;28.13;;
25922;SDS011;13725;51.170;4.442;2022-08-19T03:38:04;55.20;;;27.33;;
25922;SDS011;13725;51.170;4.442;2022-08-19T03:40:31;56.13;;;27.85;;
25922;SDS011;13725;51.170;4.442;2022-08-19T03:42:59;55.97;;;26.30;;
25922;SDS011;13725;51.170;4.442;2022-08-19T03:45:25;46.65;;;26.08;;
25922;SDS011;13725;51.170;4.442;2022-08-19T03:47:52;49.72;;;26.15;;
25922;SDS011;13725;51.170;4.442;2022-08-19T03:50:18;48.10;;;25.30;;
25922;SDS011;13725;51.170;4.442;2022-08-19T03:52:51;45.92;;;23.85;;
25922;SDS011;13725;51.170;4.442;2022-08-19T03:55:17;51.80;;;25.70;;
25922;SDS011;13725;51.170;4.442;2022-08-19T03:57:44;44.53;;;25.52;;
25922;SDS011;13725;51.170;4.442;2022-08-19T04:00:11;47.00;;;23.65;;
25922;SDS011;13725;51.170;4.442;2022-08-19T04:02:37;46.30;;;23.95;;
25922;SDS011;13725;51.170;4.442;2022-08-19T04:05:03;49.65;;;25.23;;
25922;SDS011;13725;51.170;4.442;2022-08-19T04:07:30;47.55;;;25.05;;
25922;SDS011;13725;51.170;4.442;2022-08-19T04:09:56;46.90;;;23.58;;
25922;SDS011;13725;51.170;4.442;2022-08-19T04:12:21;50.60;;;23.27;;
25922;SDS011;13725;51.170;4.442;2022-08-19T04:14:47;46.97;;;24.30;;
25922;SDS011;13725;51.170;4.442;2022-08-19T04:17:13;46.38;;;24.63;;
25922;SDS011;13725;51.170;4.442;2022-08-19T04:19:39;50.58;;;24.90;;
25922;SDS011;13725;51.170;4.442;2022-08-19T04:22:06;44.53;;;23.33;;
25922;SDS011;13725;51.170;4.442;2022-08-19T04:24:32;42.28;;;23.48;;
25922;SDS011;13725;51.170;4.442;2022-08-19T04:27:00;46.08;;;23.30;;
25922;SDS011;13725;51.170;4.442;2022-08-19T04:29:27;49.85;;;24.80;;
25922;SDS011;13725;51.170;4.442;2022-08-19T04:31:54;44.22;;;23.00;;
25922;SDS011;13725;51.170;4.442;2022-08-19T04:34:23;43.17;;;22.80;;
25922;SDS011;13725;51.170;4.442;2022-08-19T04:36:51;43.30;;;22.90;;
25922;SDS011;13725;51.170;4.442;2022-08-19T04:39:25;44.20;;;21.35;;
25922;SDS011;13725;51.170;4.442;2022-08-19T04:42:13;39.08;;;21.67;;
25922;SDS011;13725;51.170;4.442;2022-08-19T04:44:58;45.20;;;21.42;;
25922;SDS011;13725;51.170;4.442;2022-08-19T04:47:24;42.40;;;21.25;;
25922;SDS011;13725;51.170;4.442;2022-08-19T04:49:49;42.45;;;20.38;;
25922;SDS011;13725;51.170;4.442;2022-08-19T04:52:15;44.97;;;21.52;;
25922;SDS011;13725;51.170;4.442;2022-08-19T04:54:41;38.85;;;20.80;;
25922;SDS011;13725;51.170;4.442;2022-08-19T04:57:07;42.90;;;20.85;;
25922;SDS011;13725;51.170;4.442;2022-08-19T04:59:34;41.85;;;20.25;;
25922;SDS011;13725;51.170;4.442;2022-08-19T05:02:01;37.85;;;20.17;;
25922;SDS011;13725;51.170;4.442;2022-08-19T05:04:27;38.95;;;18.85;;
25922;SDS011;13725;51.170;4.442;2022-08-19T05:06:56;36.72;;;19.10;;
25922;SDS011;13725;51.170;4.442;2022-08-19T05:09:22;40.25;;;18.35;;
25922;SDS011;13725;51.170;4.442;2022-08-19T05:11:48;35.78;;;18.58;;
25922;SDS011;13725;51.170;4.442;2022-08-19T05:14:14;30.52;;;17.63;;
25922;SDS011;13725;51.170;4.442;2022-08-19T05:16:40;36.42;;;18.08;;
25922;SDS011;13725;51.170;4.442;2022-08-19T05:19:06;37.40;;;18.88;;
25922;SDS011;13725;51.170;4.442;2022-08-19T05:21:51;36.65;;;18.15;;
25922;SDS011;13725;51.170;4.442;2022-08-19T05:24:35;34.00;;;18.13;;
25922;SDS011;13725;51.170;4.442;2022-08-19T05:27:02;33.03;;;17.27;;
25922;SDS011;13725;51.170;4.442;2022-08-19T05:29:30;36.53;;;20.45;;
25922;SDS011;13725;51.170;4.442;2022-08-19T05:31:59;34.28;;;17.45;;
25922;SDS011;13725;51.170;4.442;2022-08-19T05:34:27;35.63;;;18.48;;
25922;SDS011;13725;51.170;4.442;2022-08-19T05:36:56;34.50;;;17.38;;
25922;SDS011;13725;51.170;4.442;2022-08-19T05:39:27;34.38;;;17.05;;
25922;SDS011;13725;51.170;4.442;2022-08-19T05:41:57;32.90;;;17.77;;
25922;SDS011;13725;51.170;4.442;2022-08-19T05:44:25;35.88;;;17.50;;
25922;SDS011;13725;51.170;4.442;2022-08-19T05:46:51;30.60;;;16.40;;
25922;SDS011;13725;51.170;4.442;2022-08-19T05:49:19;33.40;;;16.08;;
25922;SDS011;13725;51.170;4.442;2022-08-19T05:51:46;28.48;;;15.57;;
25922;SDS011;13725;51.170;4.442;2022-08-19T05:54:12;28.17;;;16.05;;
25922;SDS011;13725;51.170;4.442;2022-08-19T05:56:39;34.83;;;14.55;;
25922;SDS011;13725;51.170;4.442;2022-08-19T05:59:06;23.75;;;14.00;;
25922;SDS011;13725;51.170;4.442;2022-08-19T06:01:40;26.92;;;15.43;;
25922;SDS011;13725;51.170;4.442;2022-08-19T06:04:07;24.48;;;13.07;;
25922;SDS011;13725;51.170;4.442;2022-08-19T06:06:34;27.35;;;14.02;;
25922;SDS011;13725;51.170;4.442;2022-08-19T06:09:01;25.63;;;13.48;;
25922;SDS011;13725;51.170;4.442;2022-08-19T06:14:10;29.08;;;13.93;;
25922;SDS011;13725;51.170;4.442;2022-08-19T06:16:38;25.25;;;13.65;;
25922;SDS011;13725;51.170;4.442;2022-08-19T06:19:10;24.42;;;13.35;;
25922;SDS011;13725;51.170;4.442;2022-08-19T06:21:38;26.60;;;12.43;;
25922;SDS011;13725;51.170;4.442;2022-08-19T06:24:07;25.67;;;12.70;;
25922;SDS011;13725;51.170;4.442;2022-08-19T06:26:35;22.40;;;13.35;;
25922;SDS011;13725;51.170;4.442;2022-08-19T06:29:03;22.02;;;12.40;;
25922;SDS011;13725;51.170;4.442;2022-08-19T06:31:31;24.77;;;11.82;;
25922;SDS011;13725;51.170;4.442;2022-08-19T06:33:59;23.73;;;12.38;;
25922;SDS011;13725;51.170;4.442;2022-08-19T06:36:28;22.27;;;12.30;;
25922;SDS011;13725;51.170;4.442;2022-08-19T06:39:00;23.30;;;11.88;;
25922;SDS011;13725;51.170;4.442;2022-08-19T06:41:29;25.55;;;12.48;;
25922;SDS011;13725;51.170;4.442;2022-08-19T06:43:56;28.35;;;12.82;;
25922;SDS011;13725;51.170;4.442;2022-08-19T06:46:22;28.35;;;13.38;;
25922;SDS011;13725;51.170;4.442;2022-08-19T06:48:48;30.20;;;12.93;;
25922;SDS011;13725;51.170;4.442;2022-08-19T06:51:15;26.52;;;12.05;;
25922;SDS011;13725;51.170;4.442;2022-08-19T06:53:47;25.92;;;11.90;;
25922;SDS011;13725;51.170;4.442;2022-08-19T06:56:14;23.23;;;11.75;;
25922;SDS011;13725;51.170;4.442;2022-08-19T06:58:41;23.38;;;11.93;;
25922;SDS011;13725;51.170;4.442;2022-08-19T07:01:06;23.80;;;12.82;;
25922;SDS011;13725;51.170;4.442;2022-08-19T07:03:33;22.13;;;12.32;;
25922;SDS011;13725;51.170;4.442;2022-08-19T07:06:07;23.67;;;11.95;;
25922;SDS011;13725;51.170;4.442;2022-08-19T07:08:36;24.80;;;11.75;;
25922;SDS011;13725;51.170;4.442;2022-08-19T07:11:07;23.52;;;11.98;;
25922;SDS011;13725;51.170;4.442;2022-08-19T07:13:34;21.70;;;11.30;;
25922;SDS011;13725;51.170;4.442;2022-08-19T07:16:08;20.88;;;11.57;;
25922;SDS011;13725;51.170;4.442;2022-08-19T07:18:37;22.73;;;12.00;;
25922;SDS011;13725;51.170;4.442;2022-08-19T07:21:04;20.20;;;11.55;;
25922;SDS011;13725;51.170;4.442;2022-08-19T07:23:39;27.13;;;11.90;;
25922;SDS011;13725;51.170;4.442;2022-08-19T07:26:09;19.40;;;11.55;;
25922;SDS011;13725;51.170;4.442;2022-08-19T07:28:47;22.15;;;11.48;;
25922;SDS011;13725;51.170;4.442;2022-08-19T07:31:18;25.38;;;11.85;;
25922;SDS011;13725;51.170;4.442;2022-08-19T07:33:46;23.73;;;11.93;;
25922;SDS011;13725;51.170;4.442;2022-08-19T07:36:14;20.55;;;11.88;;
25922;SDS011;13725;51.170;4.442;2022-08-19T07:38:43;20.63;;;11.02;;
25922;SDS011;13725;51.170;4.442;2022-08-19T07:41:13;20.95;;;11.27;;
25922;SDS011;13725;51.170;4.442;2022-08-19T07:43:45;20.05;;;11.27;;
25922;SDS011;13725;51.170;4.442;2022-08-19T07:46:12;24.83;;;11.82;;
25922;SDS011;13725;51.170;4.442;2022-08-19T07:48:38;18.85;;;10.93;;
25922;SDS011;13725;51.170;4.442;2022-08-19T07:51:11;21.52;;;11.27;;
25922;SDS011;13725;51.170;4.442;2022-08-19T07:53:36;20.10;;;10.93;;
25922;SDS011;13725;51.170;4.442;2022-08-19T07:56:03;26.45;;;11.73;;
25922;SDS011;13725;51.170;4.442;2022-08-19T07:58:30;16.00;;;10.27;;
25922;SDS011;13725;51.170;4.442;2022-08-19T08:00:57;19.98;;;10.20;;
25922;SDS011;13725;51.170;4.442;2022-08-19T08:03:23;17.98;;;9.60;;
25922;SDS011;13725;51.170;4.442;2022-08-19T08:06:11;16.00;;;10.02;;
25922;SDS011;13725;51.170;4.442;2022-08-19T08:08:56;17.45;;;9.95;;
25922;SDS011;13725;51.170;4.442;2022-08-19T08:12:11;14.98;;;9.93;;
25922;SDS011;13725;51.170;4.442;2022-08-19T08:14:36;20.60;;;10.95;;
25922;SDS011;13725;51.170;4.442;2022-08-19T08:17:12;16.70;;;8.95;;
25922;SDS011;13725;51.170;4.442;2022-08-19T08:19:40;16.17;;;8.82;;
25922;SDS011;13725;51.170;4.442;2022-08-19T08:22:06;14.27;;;8.55;;
25922;SDS011;13725;51.170;4.442;2022-08-19T08:24:33;12.93;;;8.13;;
25922;SDS011;13725;51.170;4.442;2022-08-19T08:27:00;15.13;;;9.15;;
25922;SDS011;13725;51.170;4.442;2022-08-19T08:29:27;17.08;;;9.45;;
25922;SDS011;13725;51.170;4.442;2022-08-19T08:31:54;17.60;;;8.55;;
25922;SDS011;13725;51.170;4.442;2022-08-19T08:34:20;18.90;;;9.02;;
25922;SDS011;13725;51.170;4.442;2022-08-19T08:36:46;11.65;;;8.10;;
25922;SDS011;13725;51.170;4.442;2022-08-19T08:39:13;12.35;;;8.35;;
25922;SDS011;13725;51.170;4.442;2022-08-19T08:44:20;14.93;;;8.43;;
25922;SDS011;13725;51.170;4.442;2022-08-19T08:46:53;11.23;;;7.90;;
25922;SDS011;13725;51.170;4.442;2022-08-19T08:52:26;11.60;;;8.15;;
25922;SDS011;13725;51.170;4.442;2022-08-19T08:54:57;14.30;;;7.68;;
25922;SDS011;13725;51.170;4.442;2022-08-19T09:00:14;14.00;;;7.68;;
25922;SDS011;13725;51.170;4.442;2022-08-19T09:02:43;15.98;;;8.45;;
25922;SDS011;13725;51.170;4.442;2022-08-19T09:05:09;14.93;;;8.95;;
25922;SDS011;13725;51.170;4.442;2022-08-19T09:07:42;13.15;;;8.48;;
25922;SDS011;13725;51.170;4.442;2022-08-19T09:10:19;13.20;;;7.30;;
25922;SDS011;13725;51.170;4.442;2022-08-19T09:15:58;14.98;;;7.15;;
25922;SDS011;13725;51.170;4.442;2022-08-19T09:18:43;13.63;;;7.10;;
25922;SDS011;13725;51.170;4.442;2022-08-19T09:21:14;14.00;;;7.55;;
25922;SDS011;13725;51.170;4.442;2022-08-19T09:23:40;17.83;;;8.52;;
25922;SDS011;13725;51.170;4.442;2022-08-19T09:26:11;10.73;;;6.95;;
25922;SDS011;13725;51.170;4.442;2022-08-19T09:28:40;12.30;;;7.55;;
25922;SDS011;13725;51.170;4.442;2022-08-19T09:31:09;12.85;;;8.05;;
25922;SDS011;13725;51.170;4.442;2022-08-19T09:33:36;12.77;;;7.82;;
25922;SDS011;13725;51.170;4.442;2022-08-19T09:36:06;13.63;;;8.10;;
25922;SDS011;13725;51.170;4.442;2022-08-19T09:38:34;16.25;;;8.63;;
25922;SDS011;13725;51.170;4.442;2022-08-19T09:41:04;15.57;;;8.25;;
25922;SDS011;13725;51.170;4.442;2022-08-19T09:43:32;14.05;;;9.10;;
25922;SDS011;13725;51.170;4.442;2022-08-19T09:46:01;18.02;;;9.57;;
25922;SDS011;13725;51.170;4.442;2022-08-19T09:48:30;16.45;;;10.15;;
25922;SDS011;13725;51.170;4.442;2022-08-19T09:51:07;18.48;;;10.07;;
25922;SDS011;13725;51.170;4.442;2022-08-19T09:53:35;19.40;;;10.52;;
25922;SDS011;13725;51.170;4.442;2022-08-19T09:56:03;17.92;;;9.52;;
25922;SDS011;13725;51.170;4.442;2022-08-19T09:58:29;18.25;;;9.75;;
25922;SDS011;13725;51.170;4.442;2022-08-19T10:00:57;15.60;;;9.75;;
25922;SDS011;13725;51.170;4.442;2022-08-19T10:03:24;18.00;;;9.18;;
25922;SDS011;13725;51.170;4.442;2022-08-19T10:05:50;15.13;;;8.77;;
25922;SDS011;13725;51.170;4.442;2022-08-19T10:08:17;16.25;;;8.82;;
25922;SDS011;13725;51.170;4.442;2022-08-19T10:10:45;14.32;;;8.93;;
25922;SDS011;13725;51.170;4.442;2022-08-19T10:13:19;20.25;;;10.90;;
25922;SDS011;13725;51.170;4.442;2022-08-19T10:15:54;18.40;;;9.68;;
25922;SDS011;13725;51.170;4.442;2022-08-19T10:18:23;19.17;;;8.60;;
25922;SDS011;13725;51.170;4.442;2022-08-19T10:20:50;15.60;;;9.02;;
25922;SDS011;13725;51.170;4.442;2022-08-19T10:23:17;16.17;;;9.00;;
25922;SDS011;13725;51.170;4.442;2022-08-19T10:25:45;12.75;;;8.05;;
25922;SDS011;13725;51.170;4.442;2022-08-19T10:28:11;18.95;;;9.38;;
25922;SDS011;13725;51.170;4.442;2022-08-19T10:30:37;16.13;;;8.98;;
25922;SDS011;13725;51.170;4.442;2022-08-19T10:33:04;14.35;;;8.52;;
25922;SDS011;13725;51.170;4.442;2022-08-19T10:35:30;16.83;;;8.35;;
25922;SDS011;13725;51.170;4.442;2022-08-19T10:37:56;17.95;;;8.80;;
25922;SDS011;13725;51.170;4.442;2022-08-19T10:40:27;13.07;;;7.40;;
25922;SDS011;13725;51.170;4.442;2022-08-19T10:42:53;15.48;;;7.55;;
25922;SDS011;13725;51.170;4.442;2022-08-19T10:45:20;11.15;;;6.82;;
25922;SDS011;13725;51.170;4.442;2022-08-19T10:47:52;13.80;;;8.13;;
25922;SDS011;13725;51.170;4.442;2022-08-19T10:50:18;12.95;;;8.05;;
25922;SDS011;13725;51.170;4.442;2022-08-19T10:53:03;15.13;;;8.20;;
25922;SDS011;13725;51.170;4.442;2022-08-19T10:55:30;15.10;;;8.27;;
25922;SDS011;13725;51.170;4.442;2022-08-19T10:58:18;13.63;;;7.82;;
25922;SDS011;13725;51.170;4.442;2022-08-19T11:00:52;14.23;;;8.13;;
25922;SDS011;13725;51.170;4.442;2022-08-19T11:03:19;13.63;;;7.68;;
25922;SDS011;13725;51.170;4.442;2022-08-19T11:05:46;14.50;;;8.60;;
25922;SDS011;13725;51.170;4.442;2022-08-19T11:08:13;15.10;;;9.07;;
25922;SDS011;13725;51.170;4.442;2022-08-19T11:10:42;17.80;;;9.40;;
25922;SDS011;13725;51.170;4.442;2022-08-19T11:13:09;16.88;;;8.88;;
25922;SDS011;13725;51.170;4.442;2022-08-19T11:15:34;14.90;;;8.40;;
25922;SDS011;13725;51.170;4.442;2022-08-19T11:18:00;14.35;;;8.30;;
25922;SDS011;13725;51.170;4.442;2022-08-19T11:20:26;11.82;;;7.45;;
25922;SDS011;13725;51.170;4.442;2022-08-19T11:22:52;15.07;;;8.18;;
25922;SDS011;13725;51.170;4.442;2022-08-19T11:25:18;11.77;;;7.43;;
25922;SDS011;13725;51.170;4.442;2022-08-19T11:27:44;14.90;;;7.80;;
25922;SDS011;13725;51.170;4.442;2022-08-19T11:30:12;11.95;;;7.00;;
25922;SDS011;13725;51.170;4.442;2022-08-19T11:32:40;12.05;;;7.60;;
25922;SDS011;13725;51.170;4.442;2022-08-19T11:35:06;9.23;;;6.80;;
25922;SDS011;13725;51.170;4.442;2022-08-19T11:37:32;14.85;;;7.25;;
25922;SDS011;13725;51.170;4.442;2022-08-19T11:40:02;10.85;;;6.82;;
25922;SDS011;13725;51.170;4.442;2022-08-19T11:42:30;11.55;;;6.57;;
25922;SDS011;13725;51.170;4.442;2022-08-19T11:45:14;13.13;;;6.43;;
25922;SDS011;13725;51.170;4.442;2022-08-19T11:47:39;8.55;;;5.85;;
25922;SDS011;13725;51.170;4.442;2022-08-19T11:50:05;9.13;;;5.55;;
25922;SDS011;13725;51.170;4.442;2022-08-19T11:52:31;10.07;;;5.32;;
25922;SDS011;13725;51.170;4.442;2022-08-19T11:54:57;10.73;;;5.20;;
25922;SDS011;13725;51.170;4.442;2022-08-19T11:57:23;8.52;;;4.90;;
25922;SDS011;13725;51.170;4.442;2022-08-19T11:59:51;14.65;;;6.65;;
25922;SDS011;13725;51.170;4.442;2022-08-19T12:02:17;12.30;;;5.88;;
25922;SDS011;13725;51.170;4.442;2022-08-19T12:04:44;8.70;;;4.78;;
25922;SDS011;13725;51.170;4.442;2022-08-19T12:07:10;9.90;;;5.03;;
25922;SDS011;13725;51.170;4.442;2022-08-19T12:09:35;14.05;;;5.88;;
25922;SDS011;13725;51.170;4.442;2022-08-19T12:12:01;9.13;;;4.78;;
25922;SDS011;13725;51.170;4.442;2022-08-19T12:14:27;13.05;;;5.22;;
25922;SDS011;13725;51.170;4.442;2022-08-19T12:16:55;8.40;;;4.57;;
25922;SDS011;13725;51.170;4.442;2022-08-19T12:19:21;8.93;;;4.20;;
25922;SDS011;13725;51.170;4.442;2022-08-19T12:21:47;5.30;;;3.15;;
25922;SDS011;13725;51.170;4.442;2022-08-19T12:24:13;6.45;;;3.25;;
25922;SDS011;13725;51.170;4.442;2022-08-19T12:26:39;2.47;;;2.30;;
25922;SDS011;13725;51.170;4.442;2022-08-19T12:29:05;5.47;;;2.22;;
25922;SDS011;13725;51.170;4.442;2022-08-19T12:31:32;4.13;;;2.30;;
25922;SDS011;13725;51.170;4.442;2022-08-19T12:33:58;5.22;;;2.70;;
25922;SDS011;13725;51.170;4.442;2022-08-19T12:36:27;8.05;;;2.70;;
25922;SDS011;13725;51.170;4.442;2022-08-19T12:38:54;4.20;;;2.63;;
25922;SDS011;13725;51.170;4.442;2022-08-19T12:41:20;4.53;;;2.45;;
25922;SDS011;13725;51.170;4.442;2022-08-19T12:43:47;2.72;;;2.08;;
25922;SDS011;13725;51.170;4.442;2022-08-19T12:46:14;2.50;;;2.10;;
25922;SDS011;13725;51.170;4.442;2022-08-19T12:48:40;3.22;;;2.50;;
25922;SDS011;13725;51.170;4.442;2022-08-19T12:51:07;3.35;;;1.85;;
25922;SDS011;13725;51.170;4.442;2022-08-19T12:53:35;4.43;;;2.58;;
25922;SDS011;13725;51.170;4.442;2022-08-19T12:56:01;2.88;;;2.55;;
25922;SDS011;13725;51.170;4.442;2022-08-19T12:58:28;3.67;;;2.33;;
25922;SDS011;13725;51.170;4.442;2022-08-19T13:00:54;3.17;;;2.30;;
25922;SDS011;13725;51.170;4.442;2022-08-19T13:03:20;2.58;;;2.15;;
25922;SDS011;13725;51.170;4.442;2022-08-19T13:05:52;5.20;;;2.47;;
25922;SDS011;13725;51.170;4.442;2022-08-19T13:08:18;2.63;;;1.85;;
25922;SDS011;13725;51.170;4.442;2022-08-19T13:10:44;6.05;;;2.10;;
25922;SDS011;13725;51.170;4.442;2022-08-19T13:13:09;3.58;;;2.17;;
25922;SDS011;13725;51.170;4.442;2022-08-19T13:15:37;6.25;;;2.13;;
25922;SDS011;13725;51.170;4.442;2022-08-19T13:18:05;3.72;;;2.10;;
25922;SDS011;13725;51.170;4.442;2022-08-19T13:20:32;2.33;;;1.80;;
25922;SDS011;13725;51.170;4.442;2022-08-19T13:22:58;4.03;;;1.95;;
25922;SDS011;13725;51.170;4.442;2022-08-19T13:25:23;3.25;;;2.00;;
25922;SDS011;13725;51.170;4.442;2022-08-19T13:27:50;6.57;;;2.50;;
25922;SDS011;13725;51.170;4.442;2022-08-19T13:30:17;4.85;;;2.17;;
25922;SDS011;13725;51.170;4.442;2022-08-19T13:33:02;2.92;;;2.17;;
25922;SDS011;13725;51.170;4.442;2022-08-19T13:35:36;5.75;;;1.80;;
25922;SDS011;13725;51.170;4.442;2022-08-19T13:38:22;5.07;;;1.65;;
25922;SDS011;13725;51.170;4.442;2022-08-19T13:40:49;3.47;;;1.50;;
25922;SDS011;13725;51.170;4.442;2022-08-19T13:43:16;3.65;;;1.88;;
25922;SDS011;13725;51.170;4.442;2022-08-19T13:45:43;3.05;;;1.77;;
25922;SDS011;13725;51.170;4.442;2022-08-19T13:48:09;3.10;;;1.92;;
25922;SDS011;13725;51.170;4.442;2022-08-19T13:50:38;2.45;;;1.75;;
25922;SDS011;13725;51.170;4.442;2022-08-19T13:53:06;2.58;;;1.70;;
25922;SDS011;13725;51.170;4.442;2022-08-19T13:55:33;5.22;;;2.08;;
25922;SDS011;13725;51.170;4.442;2022-08-19T13:58:01;4.05;;;2.53;;
25922;SDS011;13725;51.170;4.442;2022-08-19T14:00:28;6.40;;;2.60;;
25922;SDS011;13725;51.170;4.442;2022-08-19T14:02:56;3.95;;;3.10;;
25922;SDS011;13725;51.170;4.442;2022-08-19T14:05:23;5.72;;;3.30;;
25922;SDS011;13725;51.170;4.442;2022-08-19T14:07:50;3.63;;;2.58;;
25922;SDS011;13725;51.170;4.442;2022-08-19T14:10:17;3.08;;;2.78;;
25922;SDS011;13725;51.170;4.442;2022-08-19T14:12:44;7.25;;;3.42;;
25922;SDS011;13725;51.170;4.442;2022-08-19T14:15:10;5.57;;;2.85;;
25922;SDS011;13725;51.170;4.442;2022-08-19T14:17:38;3.70;;;2.92;;
25922;SDS011;13725;51.170;4.442;2022-08-19T14:20:08;3.42;;;2.80;;
25922;SDS011;13725;51.170;4.442;2022-08-19T14:22:36;3.50;;;2.53;;
25922;SDS011;13725;51.170;4.442;2022-08-19T14:25:06;2.97;;;2.13;;
25922;SDS011;13725;51.170;4.442;2022-08-19T14:27:34;2.75;;;1.70;;
25922;SDS011;13725;51.170;4.442;2022-08-19T14:30:03;2.47;;;2.10;;
25922;SDS011;13725;51.170;4.442;2022-08-19T14:32:29;2.20;;;2.00;;
25922;SDS011;13725;51.170;4.442;2022-08-19T14:34:55;2.00;;;1.80;;
25922;SDS011;13725;51.170;4.442;2022-08-19T14:37:21;4.22;;;1.60;;
25922;SDS011;13725;51.170;4.442;2022-08-19T14:39:47;3.53;;;1.77;;
25922;SDS011;13725;51.170;4.442;2022-08-19T14:42:13;5.15;;;2.20;;
25922;SDS011;13725;51.170;4.442;2022-08-19T14:44:42;3.65;;;1.90;;
25922;SDS011;13725;51.170;4.442;2022-08-19T14:47:07;3.28;;;1.63;;
25922;SDS011;13725;51.170;4.442;2022-08-19T14:49:34;3.05;;;1.73;;
25922;SDS011;13725;51.170;4.442;2022-08-19T14:52:00;2.60;;;1.00;;